sensor_id;sensor_type;location;lat;lon;timestamp;P1;durP1;ratioP1;P2;durP2;ratioP2
11531;SDS011;5822;51.000;5.874;2023-02-17T00:00:01;20.50;;;19.20;;
11531;SDS011;5822;51.000;5.874;2023-02-17T00:02:28;20.90;;;19.60;;
11531;SDS011;5822;51.000;5.874;2023-02-17T00:04:53;20.67;;;19.37;;
11531;SDS011;5822;51.000;5.874;2023-02-17T00:07:19;19.80;;;18.60;;
11531;SDS011;5822;51.000;5.874;2023-02-17T00:09:44;19.80;;;18.60;;
11531;SDS011;5822;51.000;5.874;2023-02-17T00:12:10;20.48;;;19.17;;
11531;SDS011;5822;51.000;5.874;2023-02-17T00:14:37;20.03;;;18.83;;
11531;SDS011;5822;51.000;5.874;2023-02-17T00:17:03;20.13;;;18.83;;
11531;SDS011;5822;51.000;5.874;2023-02-17T00:19:29;20.00;;;18.80;;
11531;SDS011;5822;51.000;5.874;2023-02-17T00:21:55;20.63;;;19.33;;
11531;SDS011;5822;51.000;5.874;2023-02-17T00:24:23;20.48;;;19.27;;
11531;SDS011;5822;51.000;5.874;2023-02-17T00:26:50;19.52;;;18.33;;
11531;SDS011;5822;51.000;5.874;2023-02-17T00:29:16;20.85;;;19.60;;
11531;SDS011;5822;51.000;5.874;2023-02-17T00:31:42;19.52;;;18.40;;
11531;SDS011;5822;51.000;5.874;2023-02-17T00:34:09;19.38;;;18.17;;
11531;SDS011;5822;51.000;5.874;2023-02-17T00:36:35;20.57;;;19.17;;
11531;SDS011;5822;51.000;5.874;2023-02-17T00:39:01;20.42;;;19.13;;
11531;SDS011;5822;51.000;5.874;2023-02-17T00:41:27;19.35;;;18.15;;
11531;SDS011;5822;51.000;5.874;2023-02-17T00:43:53;18.70;;;17.60;;
11531;SDS011;5822;51.000;5.874;2023-02-17T00:46:19;19.23;;;18.02;;
11531;SDS011;5822;51.000;5.874;2023-02-17T00:48:45;19.63;;;18.42;;
11531;SDS011;5822;51.000;5.874;2023-02-17T00:51:12;20.73;;;19.42;;
11531;SDS011;5822;51.000;5.874;2023-02-17T00:53:39;19.73;;;18.53;;
11531;SDS011;5822;51.000;5.874;2023-02-17T00:56:05;19.50;;;18.20;;
11531;SDS011;5822;51.000;5.874;2023-02-17T00:58:31;19.10;;;17.92;;
11531;SDS011;5822;51.000;5.874;2023-02-17T01:00:57;19.40;;;18.10;;
11531;SDS011;5822;51.000;5.874;2023-02-17T01:03:23;18.93;;;17.83;;
11531;SDS011;5822;51.000;5.874;2023-02-17T01:05:49;19.13;;;17.98;;
11531;SDS011;5822;51.000;5.874;2023-02-17T01:08:16;18.95;;;17.85;;
11531;SDS011;5822;51.000;5.874;2023-02-17T01:10:42;18.75;;;17.65;;
11531;SDS011;5822;51.000;5.874;2023-02-17T01:13:10;19.70;;;18.50;;
11531;SDS011;5822;51.000;5.874;2023-02-17T01:15:40;18.92;;;17.73;;
11531;SDS011;5822;51.000;5.874;2023-02-17T01:18:11;19.90;;;18.70;;
11531;SDS011;5822;51.000;5.874;2023-02-17T01:20:37;19.45;;;18.25;;
11531;SDS011;5822;51.000;5.874;2023-02-17T01:23:05;18.70;;;17.60;;
11531;SDS011;5822;51.000;5.874;2023-02-17T01:25:35;19.50;;;18.30;;
11531;SDS011;5822;51.000;5.874;2023-02-17T01:28:05;18.27;;;17.17;;
11531;SDS011;5822;51.000;5.874;2023-02-17T01:30:32;18.92;;;17.83;;
11531;SDS011;5822;51.000;5.874;2023-02-17T01:32:58;18.80;;;17.70;;
11531;SDS011;5822;51.000;5.874;2023-02-17T01:35:23;19.37;;;18.17;;
11531;SDS011;5822;51.000;5.874;2023-02-17T01:37:49;19.43;;;18.33;;
11531;SDS011;5822;51.000;5.874;2023-02-17T01:40:14;18.77;;;17.67;;
11531;SDS011;5822;51.000;5.874;2023-02-17T01:42:41;19.20;;;18.10;;
11531;SDS011;5822;51.000;5.874;2023-02-17T01:47:45;18.50;;;17.40;;
11531;SDS011;5822;51.000;5.874;2023-02-17T01:50:23;18.42;;;17.33;;
11531;SDS011;5822;51.000;5.874;2023-02-17T01:52:54;17.95;;;16.95;;
11531;SDS011;5822;51.000;5.874;2023-02-17T01:55:22;18.80;;;17.70;;
11531;SDS011;5822;51.000;5.874;2023-02-17T01:57:49;19.23;;;18.02;;
11531;SDS011;5822;51.000;5.874;2023-02-17T02:00:17;19.27;;;18.17;;
11531;SDS011;5822;51.000;5.874;2023-02-17T02:02:46;18.85;;;17.75;;
11531;SDS011;5822;51.000;5.874;2023-02-17T02:05:13;19.10;;;18.00;;
11531;SDS011;5822;51.000;5.874;2023-02-17T02:07:41;19.10;;;18.00;;
11531;SDS011;5822;51.000;5.874;2023-02-17T02:10:11;18.65;;;17.60;;
11531;SDS011;5822;51.000;5.874;2023-02-17T02:12:38;18.70;;;17.63;;
11531;SDS011;5822;51.000;5.874;2023-02-17T02:15:21;19.38;;;18.27;;
11531;SDS011;5822;51.000;5.874;2023-02-17T02:29:22;18.52;;;17.52;;
11531;SDS011;5822;51.000;5.874;2023-02-17T02:32:03;17.77;;;16.85;;
11531;SDS011;5822;51.000;5.874;2023-02-17T02:34:50;19.25;;;18.15;;
11531;SDS011;5822;51.000;5.874;2023-02-17T02:37:25;19.42;;;18.33;;
11531;SDS011;5822;51.000;5.874;2023-02-17T02:39:56;18.80;;;17.70;;
11531;SDS011;5822;51.000;5.874;2023-02-17T02:42:27;19.10;;;18.00;;
11531;SDS011;5822;51.000;5.874;2023-02-17T02:44:53;19.85;;;18.73;;
11531;SDS011;5822;51.000;5.874;2023-02-17T02:50:12;19.35;;;18.25;;
11531;SDS011;5822;51.000;5.874;2023-02-17T02:52:55;19.83;;;18.73;;
11531;SDS011;5822;51.000;5.874;2023-02-17T02:55:42;20.20;;;19.00;;
11531;SDS011;5822;51.000;5.874;2023-02-17T02:58:16;19.63;;;18.52;;
11531;SDS011;5822;51.000;5.874;2023-02-17T03:03:16;20.20;;;19.00;;
11531;SDS011;5822;51.000;5.874;2023-02-17T03:06:02;19.77;;;18.67;;
11531;SDS011;5822;51.000;5.874;2023-02-17T03:11:02;19.63;;;18.52;;
11531;SDS011;5822;51.000;5.874;2023-02-17T03:13:28;19.17;;;18.08;;
11531;SDS011;5822;51.000;5.874;2023-02-17T03:15:57;19.00;;;17.90;;
11531;SDS011;5822;51.000;5.874;2023-02-17T03:18:23;19.05;;;17.95;;
11531;SDS011;5822;51.000;5.874;2023-02-17T03:20:53;18.87;;;17.77;;
11531;SDS011;5822;51.000;5.874;2023-02-17T03:23:23;18.80;;;17.80;;
11531;SDS011;5822;51.000;5.874;2023-02-17T03:25:49;19.23;;;18.13;;
11531;SDS011;5822;51.000;5.874;2023-02-17T03:28:14;18.90;;;17.80;;
11531;SDS011;5822;51.000;5.874;2023-02-17T03:30:40;19.27;;;18.17;;
11531;SDS011;5822;51.000;5.874;2023-02-17T03:33:06;19.48;;;18.38;;
11531;SDS011;5822;51.000;5.874;2023-02-17T03:35:32;19.73;;;18.63;;
11531;SDS011;5822;51.000;5.874;2023-02-17T03:37:58;19.07;;;18.07;;
11531;SDS011;5822;51.000;5.874;2023-02-17T03:40:23;19.13;;;18.02;;
11531;SDS011;5822;51.000;5.874;2023-02-17T03:42:49;19.60;;;18.50;;
11531;SDS011;5822;51.000;5.874;2023-02-17T03:45:15;19.65;;;18.55;;
11531;SDS011;5822;51.000;5.874;2023-02-17T03:47:40;19.55;;;18.45;;
11531;SDS011;5822;51.000;5.874;2023-02-17T03:50:06;19.33;;;18.23;;
11531;SDS011;5822;51.000;5.874;2023-02-17T03:52:32;18.63;;;17.63;;
11531;SDS011;5822;51.000;5.874;2023-02-17T03:54:58;19.50;;;18.40;;
11531;SDS011;5822;51.000;5.874;2023-02-17T03:57:23;20.23;;;19.03;;
11531;SDS011;5822;51.000;5.874;2023-02-17T03:59:49;19.87;;;18.73;;
11531;SDS011;5822;51.000;5.874;2023-02-17T04:02:15;19.17;;;18.07;;
11531;SDS011;5822;51.000;5.874;2023-02-17T04:04:40;19.30;;;18.20;;
11531;SDS011;5822;51.000;5.874;2023-02-17T04:07:06;18.90;;;17.80;;
11531;SDS011;5822;51.000;5.874;2023-02-17T04:09:31;19.00;;;17.90;;
11531;SDS011;5822;51.000;5.874;2023-02-17T04:11:57;18.25;;;17.25;;
11531;SDS011;5822;51.000;5.874;2023-02-17T04:14:23;17.90;;;16.90;;
11531;SDS011;5822;51.000;5.874;2023-02-17T04:16:48;17.97;;;16.97;;
11531;SDS011;5822;51.000;5.874;2023-02-17T04:19:14;17.83;;;16.83;;
11531;SDS011;5822;51.000;5.874;2023-02-17T04:21:39;18.33;;;17.33;;
11531;SDS011;5822;51.000;5.874;2023-02-17T04:24:05;18.20;;;17.20;;
11531;SDS011;5822;51.000;5.874;2023-02-17T04:26:31;17.77;;;16.77;;
11531;SDS011;5822;51.000;5.874;2023-02-17T04:28:56;18.30;;;17.30;;
11531;SDS011;5822;51.000;5.874;2023-02-17T04:31:22;18.27;;;17.27;;
11531;SDS011;5822;51.000;5.874;2023-02-17T04:33:49;17.52;;;16.52;;
11531;SDS011;5822;51.000;5.874;2023-02-17T04:36:15;17.90;;;16.90;;
11531;SDS011;5822;51.000;5.874;2023-02-17T04:38:41;18.50;;;17.50;;
11531;SDS011;5822;51.000;5.874;2023-02-17T04:41:06;18.30;;;17.30;;
11531;SDS011;5822;51.000;5.874;2023-02-17T04:43:32;18.20;;;17.20;;
11531;SDS011;5822;51.000;5.874;2023-02-17T04:45:58;18.93;;;17.83;;
11531;SDS011;5822;51.000;5.874;2023-02-17T04:48:24;17.95;;;16.95;;
11531;SDS011;5822;51.000;5.874;2023-02-17T04:50:50;17.85;;;16.85;;
11531;SDS011;5822;51.000;5.874;2023-02-17T04:53:16;17.65;;;16.65;;
11531;SDS011;5822;51.000;5.874;2023-02-17T04:55:42;17.88;;;16.88;;
11531;SDS011;5822;51.000;5.874;2023-02-17T04:58:08;18.85;;;17.75;;
11531;SDS011;5822;51.000;5.874;2023-02-17T05:00:34;19.08;;;17.98;;
11531;SDS011;5822;51.000;5.874;2023-02-17T05:03:00;19.63;;;18.42;;
11531;SDS011;5822;51.000;5.874;2023-02-17T05:05:26;19.17;;;17.97;;
11531;SDS011;5822;51.000;5.874;2023-02-17T05:07:52;19.13;;;18.03;;
11531;SDS011;5822;51.000;5.874;2023-02-17T05:10:18;19.10;;;18.00;;
11531;SDS011;5822;51.000;5.874;2023-02-17T05:12:44;18.90;;;17.80;;
11531;SDS011;5822;51.000;5.874;2023-02-17T05:15:10;19.00;;;17.90;;
11531;SDS011;5822;51.000;5.874;2023-02-17T05:17:36;18.80;;;17.70;;
11531;SDS011;5822;51.000;5.874;2023-02-17T05:20:02;18.70;;;17.60;;
11531;SDS011;5822;51.000;5.874;2023-02-17T05:22:29;18.02;;;17.00;;
11531;SDS011;5822;51.000;5.874;2023-02-17T05:24:55;19.30;;;18.10;;
11531;SDS011;5822;51.000;5.874;2023-02-17T05:27:20;19.00;;;17.83;;
11531;SDS011;5822;51.000;5.874;2023-02-17T05:29:46;18.20;;;17.20;;
11531;SDS011;5822;51.000;5.874;2023-02-17T05:32:12;18.73;;;17.63;;
11531;SDS011;5822;51.000;5.874;2023-02-17T05:34:37;17.70;;;16.70;;
11531;SDS011;5822;51.000;5.874;2023-02-17T05:37:03;17.80;;;16.80;;
11531;SDS011;5822;51.000;5.874;2023-02-17T05:39:29;18.35;;;17.25;;
11531;SDS011;5822;51.000;5.874;2023-02-17T05:41:55;18.20;;;17.10;;
11531;SDS011;5822;51.000;5.874;2023-02-17T05:44:20;18.85;;;17.75;;
11531;SDS011;5822;51.000;5.874;2023-02-17T05:46:46;20.08;;;18.88;;
11531;SDS011;5822;51.000;5.874;2023-02-17T05:49:12;19.20;;;18.10;;
11531;SDS011;5822;51.000;5.874;2023-02-17T05:51:38;19.75;;;18.55;;
11531;SDS011;5822;51.000;5.874;2023-02-17T05:54:03;20.52;;;19.23;;
11531;SDS011;5822;51.000;5.874;2023-02-17T05:56:29;20.30;;;19.10;;
11531;SDS011;5822;51.000;5.874;2023-02-17T05:58:55;19.80;;;18.60;;
11531;SDS011;5822;51.000;5.874;2023-02-17T06:01:20;19.47;;;18.27;;
11531;SDS011;5822;51.000;5.874;2023-02-17T06:03:46;19.30;;;18.20;;
11531;SDS011;5822;51.000;5.874;2023-02-17T06:06:12;18.97;;;17.87;;
11531;SDS011;5822;51.000;5.874;2023-02-17T06:08:38;18.90;;;17.80;;
11531;SDS011;5822;51.000;5.874;2023-02-17T06:11:04;19.38;;;18.17;;
11531;SDS011;5822;51.000;5.874;2023-02-17T06:13:30;19.50;;;18.30;;
11531;SDS011;5822;51.000;5.874;2023-02-17T06:15:56;19.80;;;18.60;;
11531;SDS011;5822;51.000;5.874;2023-02-17T06:18:21;19.70;;;18.50;;
11531;SDS011;5822;51.000;5.874;2023-02-17T06:20:48;18.90;;;17.80;;
11531;SDS011;5822;51.000;5.874;2023-02-17T06:23:13;19.15;;;18.05;;
11531;SDS011;5822;51.000;5.874;2023-02-17T06:25:39;19.17;;;17.98;;
11531;SDS011;5822;51.000;5.874;2023-02-17T06:28:05;18.73;;;17.63;;
11531;SDS011;5822;51.000;5.874;2023-02-17T06:30:30;18.90;;;17.80;;
11531;SDS011;5822;51.000;5.874;2023-02-17T06:32:56;19.80;;;18.60;;
11531;SDS011;5822;51.000;5.874;2023-02-17T06:35:23;18.90;;;17.80;;
11531;SDS011;5822;51.000;5.874;2023-02-17T06:37:49;19.57;;;18.37;;
11531;SDS011;5822;51.000;5.874;2023-02-17T06:40:15;19.77;;;18.53;;
11531;SDS011;5822;51.000;5.874;2023-02-17T06:42:40;20.85;;;19.55;;
11531;SDS011;5822;51.000;5.874;2023-02-17T06:45:06;20.73;;;19.43;;
11531;SDS011;5822;51.000;5.874;2023-02-17T06:47:33;20.38;;;19.08;;
11531;SDS011;5822;51.000;5.874;2023-02-17T06:49:59;20.35;;;19.05;;
11531;SDS011;5822;51.000;5.874;2023-02-17T06:52:25;20.75;;;19.45;;
11531;SDS011;5822;51.000;5.874;2023-02-17T06:54:51;21.65;;;20.25;;
11531;SDS011;5822;51.000;5.874;2023-02-17T06:57:16;21.30;;;19.90;;
11531;SDS011;5822;51.000;5.874;2023-02-17T06:59:42;21.40;;;20.00;;
11531;SDS011;5822;51.000;5.874;2023-02-17T07:02:11;21.92;;;20.52;;
11531;SDS011;5822;51.000;5.874;2023-02-17T07:04:38;24.00;;;22.60;;
11531;SDS011;5822;51.000;5.874;2023-02-17T07:07:04;23.73;;;22.33;;
11531;SDS011;5822;51.000;5.874;2023-02-17T07:09:30;28.23;;;26.63;;
11531;SDS011;5822;51.000;5.874;2023-02-17T07:11:56;28.77;;;27.17;;
11531;SDS011;5822;51.000;5.874;2023-02-17T07:14:22;36.83;;;34.93;;
11531;SDS011;5822;51.000;5.874;2023-02-17T07:16:48;46.75;;;44.45;;
11531;SDS011;5822;51.000;5.874;2023-02-17T07:19:14;40.53;;;38.43;;
11531;SDS011;5822;51.000;5.874;2023-02-17T07:21:39;32.33;;;30.63;;
11531;SDS011;5822;51.000;5.874;2023-02-17T07:24:05;33.80;;;32.00;;
11531;SDS011;5822;51.000;5.874;2023-02-17T07:26:31;32.78;;;31.08;;
11531;SDS011;5822;51.000;5.874;2023-02-17T07:29:00;23.10;;;21.70;;
11531;SDS011;5822;51.000;5.874;2023-02-17T07:31:25;24.10;;;22.70;;
11531;SDS011;5822;51.000;5.874;2023-02-17T07:33:51;21.92;;;20.63;;
11531;SDS011;5822;51.000;5.874;2023-02-17T07:36:17;23.80;;;22.40;;
11531;SDS011;5822;51.000;5.874;2023-02-17T07:38:43;27.08;;;25.58;;
11531;SDS011;5822;51.000;5.874;2023-02-17T07:41:10;31.67;;;29.98;;
11531;SDS011;5822;51.000;5.874;2023-02-17T07:43:46;31.33;;;29.73;;
11531;SDS011;5822;51.000;5.874;2023-02-17T07:46:13;22.90;;;21.50;;
11531;SDS011;5822;51.000;5.874;2023-02-17T07:48:39;21.52;;;20.33;;
11531;SDS011;5822;51.000;5.874;2023-02-17T07:51:12;23.67;;;22.27;;
11531;SDS011;5822;51.000;5.874;2023-02-17T07:53:39;26.15;;;24.65;;
11531;SDS011;5822;51.000;5.874;2023-02-17T07:56:06;27.20;;;25.80;;
11531;SDS011;5822;51.000;5.874;2023-02-17T07:58:34;29.75;;;28.15;;
11531;SDS011;5822;51.000;5.874;2023-02-17T08:01:11;28.42;;;26.92;;
11531;SDS011;5822;51.000;5.874;2023-02-17T08:03:38;23.63;;;22.25;;
11531;SDS011;5822;51.000;5.874;2023-02-17T08:06:08;22.90;;;21.60;;
11531;SDS011;5822;51.000;5.874;2023-02-17T08:08:34;23.33;;;21.93;;
11531;SDS011;5822;51.000;5.874;2023-02-17T08:11:19;28.40;;;26.90;;
11531;SDS011;5822;51.000;5.874;2023-02-17T08:14:03;28.08;;;26.58;;
11531;SDS011;5822;51.000;5.874;2023-02-17T08:16:29;27.77;;;26.27;;
11531;SDS011;5822;51.000;5.874;2023-02-17T08:18:55;22.63;;;21.33;;
11531;SDS011;5822;51.000;5.874;2023-02-17T08:21:21;23.17;;;21.77;;
11531;SDS011;5822;51.000;5.874;2023-02-17T08:23:48;23.35;;;21.95;;
11531;SDS011;5822;51.000;5.874;2023-02-17T08:26:14;27.10;;;25.60;;
11531;SDS011;5822;51.000;5.874;2023-02-17T08:28:40;27.67;;;26.08;;
11531;SDS011;5822;51.000;5.874;2023-02-17T08:31:05;30.17;;;28.58;;
11531;SDS011;5822;51.000;5.874;2023-02-17T08:33:38;27.57;;;26.07;;
11531;SDS011;5822;51.000;5.874;2023-02-17T08:36:05;22.73;;;21.43;;
11531;SDS011;5822;51.000;5.874;2023-02-17T08:38:32;22.77;;;21.48;;
11531;SDS011;5822;51.000;5.874;2023-02-17T08:40:58;22.20;;;20.90;;
11531;SDS011;5822;51.000;5.874;2023-02-17T08:43:24;26.60;;;25.10;;
11531;SDS011;5822;51.000;5.874;2023-02-17T08:45:49;23.40;;;22.10;;
11531;SDS011;5822;51.000;5.874;2023-02-17T08:48:15;22.03;;;20.73;;
11531;SDS011;5822;51.000;5.874;2023-02-17T08:50:40;21.80;;;20.50;;
11531;SDS011;5822;51.000;5.874;2023-02-17T08:53:06;22.25;;;20.95;;
11531;SDS011;5822;51.000;5.874;2023-02-17T08:55:33;25.80;;;24.40;;
11531;SDS011;5822;51.000;5.874;2023-02-17T08:57:59;26.45;;;25.05;;
11531;SDS011;5822;51.000;5.874;2023-02-17T09:00:25;29.00;;;27.50;;
11531;SDS011;5822;51.000;5.874;2023-02-17T09:02:50;28.35;;;26.85;;
11531;SDS011;5822;51.000;5.874;2023-02-17T09:05:16;21.83;;;20.50;;
11531;SDS011;5822;51.000;5.874;2023-02-17T09:07:42;21.40;;;20.20;;
11531;SDS011;5822;51.000;5.874;2023-02-17T09:10:11;20.58;;;19.38;;
11531;SDS011;5822;51.000;5.874;2023-02-17T09:12:37;23.98;;;22.67;;
11531;SDS011;5822;51.000;5.874;2023-02-17T09:15:03;23.30;;;22.10;;
11531;SDS011;5822;51.000;5.874;2023-02-17T09:17:29;20.80;;;19.60;;
11531;SDS011;5822;51.000;5.874;2023-02-17T09:19:54;20.80;;;19.60;;
11531;SDS011;5822;51.000;5.874;2023-02-17T09:22:20;20.80;;;19.60;;
11531;SDS011;5822;51.000;5.874;2023-02-17T09:24:45;22.02;;;20.83;;
11531;SDS011;5822;51.000;5.874;2023-02-17T09:27:11;24.73;;;23.42;;
11531;SDS011;5822;51.000;5.874;2023-02-17T09:29:38;25.02;;;23.73;;
11531;SDS011;5822;51.000;5.874;2023-02-17T09:32:07;20.05;;;18.95;;
11531;SDS011;5822;51.000;5.874;2023-02-17T09:34:35;20.70;;;19.50;;
11531;SDS011;5822;51.000;5.874;2023-02-17T09:37:01;20.03;;;18.90;;
11531;SDS011;5822;51.000;5.874;2023-02-17T09:39:27;25.30;;;23.80;;
11531;SDS011;5822;51.000;5.874;2023-02-17T09:41:53;26.00;;;24.60;;
11531;SDS011;5822;51.000;5.874;2023-02-17T09:46:47;20.60;;;19.50;;
11531;SDS011;5822;51.000;5.874;2023-02-17T09:49:19;21.73;;;20.42;;
11531;SDS011;5822;51.000;5.874;2023-02-17T09:51:57;21.70;;;20.50;;
11531;SDS011;5822;51.000;5.874;2023-02-17T09:57:57;22.40;;;21.10;;
11531;SDS011;5822;51.000;5.874;2023-02-17T10:00:45;21.27;;;20.02;;
11531;SDS011;5822;51.000;5.874;2023-02-17T10:03:15;20.50;;;19.30;;
11531;SDS011;5822;51.000;5.874;2023-02-17T10:06:31;21.67;;;20.48;;
11531;SDS011;5822;51.000;5.874;2023-02-17T10:13:54;21.00;;;19.80;;
11531;SDS011;5822;51.000;5.874;2023-02-17T10:16:27;22.13;;;20.83;;
11531;SDS011;5822;51.000;5.874;2023-02-17T10:19:00;23.35;;;22.00;;
11531;SDS011;5822;51.000;5.874;2023-02-17T10:21:37;26.02;;;24.52;;
11531;SDS011;5822;51.000;5.874;2023-02-17T10:24:10;21.17;;;19.87;;
11531;SDS011;5822;51.000;5.874;2023-02-17T10:35:02;24.30;;;23.00;;
11531;SDS011;5822;51.000;5.874;2023-02-17T10:40:19;20.83;;;19.63;;
11531;SDS011;5822;51.000;5.874;2023-02-17T10:42:51;20.15;;;18.95;;
11531;SDS011;5822;51.000;5.874;2023-02-17T10:45:28;23.85;;;22.55;;
11531;SDS011;5822;51.000;5.874;2023-02-17T10:50:40;20.25;;;19.10;;
11531;SDS011;5822;51.000;5.874;2023-02-17T10:53:13;19.33;;;18.23;;
11531;SDS011;5822;51.000;5.874;2023-02-17T10:55:53;22.80;;;21.58;;
11531;SDS011;5822;51.000;5.874;2023-02-17T11:01:10;19.45;;;18.35;;
11531;SDS011;5822;51.000;5.874;2023-02-17T11:03:37;20.10;;;18.90;;
11531;SDS011;5822;51.000;5.874;2023-02-17T11:06:06;19.83;;;18.73;;
11531;SDS011;5822;51.000;5.874;2023-02-17T11:08:45;19.10;;;17.95;;
11531;SDS011;5822;51.000;5.874;2023-02-17T11:11:22;19.70;;;18.50;;
11531;SDS011;5822;51.000;5.874;2023-02-17T11:14:07;19.60;;;18.40;;
11531;SDS011;5822;51.000;5.874;2023-02-17T11:16:38;18.95;;;17.85;;
11531;SDS011;5822;51.000;5.874;2023-02-17T11:19:05;18.80;;;17.70;;
11531;SDS011;5822;51.000;5.874;2023-02-17T11:21:32;18.55;;;17.45;;
11531;SDS011;5822;51.000;5.874;2023-02-17T11:23:59;18.50;;;17.50;;
11531;SDS011;5822;51.000;5.874;2023-02-17T11:26:27;19.70;;;18.50;;
11531;SDS011;5822;51.000;5.874;2023-02-17T11:29:17;18.70;;;17.60;;
11531;SDS011;5822;51.000;5.874;2023-02-17T11:34:25;18.77;;;17.67;;
11531;SDS011;5822;51.000;5.874;2023-02-17T11:36:58;18.23;;;17.23;;
11531;SDS011;5822;51.000;5.874;2023-02-17T11:39:25;18.63;;;17.52;;
11531;SDS011;5822;51.000;5.874;2023-02-17T11:41:52;18.48;;;17.48;;
11531;SDS011;5822;51.000;5.874;2023-02-17T11:44:27;18.30;;;17.30;;
11531;SDS011;5822;51.000;5.874;2023-02-17T11:47:13;18.70;;;17.60;;
11531;SDS011;5822;51.000;5.874;2023-02-17T11:50:03;19.08;;;17.88;;
11531;SDS011;5822;51.000;5.874;2023-02-17T11:55:49;19.42;;;18.27;;
11531;SDS011;5822;51.000;5.874;2023-02-17T12:03:38;18.60;;;17.40;;
11531;SDS011;5822;51.000;5.874;2023-02-17T12:06:30;18.10;;;17.10;;
11531;SDS011;5822;51.000;5.874;2023-02-17T12:09:23;18.73;;;17.63;;
11531;SDS011;5822;51.000;5.874;2023-02-17T12:17:20;18.50;;;17.40;;
11531;SDS011;5822;51.000;5.874;2023-02-17T12:25:25;17.92;;;16.92;;
11531;SDS011;5822;51.000;5.874;2023-02-17T12:27:59;18.63;;;17.52;;
11531;SDS011;5822;51.000;5.874;2023-02-17T12:30:43;18.70;;;17.60;;
11531;SDS011;5822;51.000;5.874;2023-02-17T12:36:07;17.60;;;16.50;;
11531;SDS011;5822;51.000;5.874;2023-02-17T12:38:37;17.23;;;16.20;;
11531;SDS011;5822;51.000;5.874;2023-02-17T12:41:08;17.20;;;16.20;;
11531;SDS011;5822;51.000;5.874;2023-02-17T12:43:45;17.17;;;16.13;;
11531;SDS011;5822;51.000;5.874;2023-02-17T12:46:15;16.52;;;15.63;;
11531;SDS011;5822;51.000;5.874;2023-02-17T12:48:48;17.07;;;16.07;;
11531;SDS011;5822;51.000;5.874;2023-02-17T12:51:35;16.58;;;15.68;;
11531;SDS011;5822;51.000;5.874;2023-02-17T12:57:12;16.60;;;15.67;;
11531;SDS011;5822;51.000;5.874;2023-02-17T12:59:45;16.48;;;15.57;;
11531;SDS011;5822;51.000;5.874;2023-02-17T13:02:21;17.02;;;16.02;;
11531;SDS011;5822;51.000;5.874;2023-02-17T13:04:52;16.80;;;15.90;;
11531;SDS011;5822;51.000;5.874;2023-02-17T13:15:39;16.70;;;15.70;;
11531;SDS011;5822;51.000;5.874;2023-02-17T13:18:41;16.30;;;15.40;;
11531;SDS011;5822;51.000;5.874;2023-02-17T13:21:02;16.15;;;15.25;;
11531;SDS011;5822;51.000;5.874;2023-02-17T13:23:56;16.10;;;15.20;;
11531;SDS011;5822;51.000;5.874;2023-02-17T13:26:27;16.00;;;15.10;;
11531;SDS011;5822;51.000;5.874;2023-02-17T13:29:08;15.77;;;14.88;;
11531;SDS011;5822;51.000;5.874;2023-02-17T13:31:52;16.13;;;15.17;;
11531;SDS011;5822;51.000;5.874;2023-02-17T13:34:47;15.40;;;14.50;;
11531;SDS011;5822;51.000;5.874;2023-02-17T13:37:23;15.27;;;14.40;;
11531;SDS011;5822;51.000;5.874;2023-02-17T13:39:55;14.90;;;14.10;;
11531;SDS011;5822;51.000;5.874;2023-02-17T13:45:25;15.50;;;14.60;;
11531;SDS011;5822;51.000;5.874;2023-02-17T13:48:26;15.27;;;14.45;;
11531;SDS011;5822;51.000;5.874;2023-02-17T13:51:01;15.40;;;14.53;;
11531;SDS011;5822;51.000;5.874;2023-02-17T13:53:36;15.02;;;14.23;;
11531;SDS011;5822;51.000;5.874;2023-02-17T13:56:26;15.10;;;14.20;;
11531;SDS011;5822;51.000;5.874;2023-02-17T13:58:53;14.90;;;14.10;;
11531;SDS011;5822;51.000;5.874;2023-02-17T14:01:23;15.15;;;14.27;;
11531;SDS011;5822;51.000;5.874;2023-02-17T14:03:52;15.15;;;14.32;;
11531;SDS011;5822;51.000;5.874;2023-02-17T14:08:48;15.50;;;14.60;;
11531;SDS011;5822;51.000;5.874;2023-02-17T14:11:15;15.27;;;14.43;;
11531;SDS011;5822;51.000;5.874;2023-02-17T14:13:47;15.50;;;14.60;;
11531;SDS011;5822;51.000;5.874;2023-02-17T14:16:25;15.93;;;14.93;;
11531;SDS011;5822;51.000;5.874;2023-02-17T14:19:00;15.77;;;14.88;;
11531;SDS011;5822;51.000;5.874;2023-02-17T14:21:31;15.40;;;14.60;;
11531;SDS011;5822;51.000;5.874;2023-02-17T14:23:59;15.20;;;14.40;;
11531;SDS011;5822;51.000;5.874;2023-02-17T14:29:00;15.50;;;14.60;;
11531;SDS011;5822;51.000;5.874;2023-02-17T14:31:28;15.30;;;14.50;;
11531;SDS011;5822;51.000;5.874;2023-02-17T14:34:00;15.20;;;14.40;;
11531;SDS011;5822;51.000;5.874;2023-02-17T14:36:37;15.25;;;14.45;;
11531;SDS011;5822;51.000;5.874;2023-02-17T14:39:07;15.27;;;14.48;;
11531;SDS011;5822;51.000;5.874;2023-02-17T14:41:37;15.00;;;14.20;;
11531;SDS011;5822;51.000;5.874;2023-02-17T14:44:02;14.87;;;14.03;;
11531;SDS011;5822;51.000;5.874;2023-02-17T14:46:30;14.90;;;14.10;;
11531;SDS011;5822;51.000;5.874;2023-02-17T14:48:56;15.70;;;14.80;;
11531;SDS011;5822;51.000;5.874;2023-02-17T14:51:22;15.15;;;14.30;;
11531;SDS011;5822;51.000;5.874;2023-02-17T14:53:49;15.20;;;14.40;;
11531;SDS011;5822;51.000;5.874;2023-02-17T14:58:53;15.50;;;14.60;;
11531;SDS011;5822;51.000;5.874;2023-02-17T15:01:20;15.93;;;15.13;;
11531;SDS011;5822;51.000;5.874;2023-02-17T15:03:47;15.77;;;14.88;;
11531;SDS011;5822;51.000;5.874;2023-02-17T15:06:21;15.38;;;14.57;;
11531;SDS011;5822;51.000;5.874;2023-02-17T15:08:49;15.65;;;14.77;;
11531;SDS011;5822;51.000;5.874;2023-02-17T15:11:20;16.10;;;15.20;;
11531;SDS011;5822;51.000;5.874;2023-02-17T15:13:53;15.53;;;14.73;;
11531;SDS011;5822;51.000;5.874;2023-02-17T15:16:18;15.95;;;15.05;;
11531;SDS011;5822;51.000;5.874;2023-02-17T15:18:44;15.33;;;14.53;;
11531;SDS011;5822;51.000;5.874;2023-02-17T15:21:21;15.77;;;14.97;;
11531;SDS011;5822;51.000;5.874;2023-02-17T15:23:53;15.63;;;14.73;;
11531;SDS011;5822;51.000;5.874;2023-02-17T15:26:20;15.65;;;14.85;;
11531;SDS011;5822;51.000;5.874;2023-02-17T15:28:46;16.00;;;15.10;;
11531;SDS011;5822;51.000;5.874;2023-02-17T15:31:12;15.80;;;14.90;;
11531;SDS011;5822;51.000;5.874;2023-02-17T15:33:53;15.70;;;14.90;;
11531;SDS011;5822;51.000;5.874;2023-02-17T15:36:21;16.60;;;15.70;;
11531;SDS011;5822;51.000;5.874;2023-02-17T15:38:47;15.60;;;14.80;;
11531;SDS011;5822;51.000;5.874;2023-02-17T15:41:15;15.57;;;14.75;;
11531;SDS011;5822;51.000;5.874;2023-02-17T15:43:46;16.05;;;15.15;;
11531;SDS011;5822;51.000;5.874;2023-02-17T15:46:15;15.75;;;14.85;;
11531;SDS011;5822;51.000;5.874;2023-02-17T15:48:42;16.30;;;15.40;;
11531;SDS011;5822;51.000;5.874;2023-02-17T15:51:12;16.25;;;15.35;;
11531;SDS011;5822;51.000;5.874;2023-02-17T15:53:43;16.58;;;15.57;;
11531;SDS011;5822;51.000;5.874;2023-02-17T15:56:14;16.33;;;15.43;;
11531;SDS011;5822;51.000;5.874;2023-02-17T15:58:45;17.55;;;16.55;;
11531;SDS011;5822;51.000;5.874;2023-02-17T16:01:15;16.30;;;15.40;;
11531;SDS011;5822;51.000;5.874;2023-02-17T16:03:48;16.17;;;15.27;;
11531;SDS011;5822;51.000;5.874;2023-02-17T16:06:14;16.02;;;15.13;;
11531;SDS011;5822;51.000;5.874;2023-02-17T16:08:39;16.10;;;15.20;;
11531;SDS011;5822;51.000;5.874;2023-02-17T16:11:07;15.70;;;14.90;;
11531;SDS011;5822;51.000;5.874;2023-02-17T16:13:37;15.73;;;14.90;;
11531;SDS011;5822;51.000;5.874;2023-02-17T16:16:04;15.98;;;15.18;;
11531;SDS011;5822;51.000;5.874;2023-02-17T16:18:45;16.00;;;15.10;;
11531;SDS011;5822;51.000;5.874;2023-02-17T16:21:11;16.20;;;15.40;;